Owensboro Daviess County Airport
KOWB : now visible

Airfield :











YOU CAN JOIN US ON...

 
LOGIN :

Register | Disclaimer

   EN    FR    IT 

 









Legend :    VFR   Marginal VFR   IFR   Intensive IFR   Very Intensive IFR
Visi :
Ceiling :
>= 8 km
>= 3000ft
5 to 8 km
1000 to 3000 ft
1500m to 5 km
500 to 1000 ft
800 to 1500m
200 to 500 ft
< 800m
< 200 ft
Symbols :   Thunderstorms  Fog  Heavy snow  Heavy precipitations  Wind > 20 kt






- Airport Elevation : 407 ft
- IATA code : OWB


KOWB - Owensboro Daviess County

CURRENT METAR :
  • 190256Z 31024G27KT 10SM CLR 01/M04 A3017 RMK AO2 PK WND 31027/0256 SLP220 T00111044 51030

EXPIRED METARs :
  • 190156Z 31018G25KT 10SM CLR 02/M04 A3014 RMK AO2 PK WND 29029/0125 SLP209 T00221039

TAF KOWB
Valid from the 19 at 00:00 until the 20 at 00:00 UTC


182324Z 1900/1924 29017G29KT P6SM BKN035
TEMPO 1900/1902 SCT035
FM190200 30015G25KT P6SM SCT040 BKN150
FM191500 30013G20KT P6SM SCT150



MET'MAP, your aeronautical weather chart ! - Copyright ORBIFLY December 2007 - Disclaimer

ORBIFLY MET'MAP TEAM :

Programming & Development : Alexandra Zaïnal
Concept & original design : Baudouin d'Aumeries
Assistance for programming : Marc-Olivier Méhu
Technical & hardware support : Manuel Goepfert

Contact : metmap@orbifly.com




SOURCES & CREDITS :

   NOAA       Earth
Advisory